createdAt,value
2022-09-11T00:00:01.490Z,24.67
2022-09-11T00:01:01.764Z,24.67
2022-09-11T00:02:01.869Z,24.64
2022-09-11T00:03:01.550Z,24.65
2022-09-11T00:04:01.465Z,24.64
2022-09-11T00:05:01.437Z,24.62
2022-09-11T00:06:01.390Z,24.68
2022-09-11T00:07:01.487Z,24.64
2022-09-11T00:08:01.775Z,24.62
2022-09-11T00:09:02.324Z,24.65
2022-09-11T00:10:01.338Z,24.62
2022-09-11T00:11:01.319Z,24.62
2022-09-11T00:12:01.631Z,24.61
2022-09-11T00:13:01.313Z,24.61
2022-09-11T00:14:01.438Z,24.61
2022-09-11T00:15:01.245Z,24.62
2022-09-11T00:16:01.307Z,24.64
2022-09-11T00:17:01.207Z,24.62
2022-09-11T00:18:01.234Z,24.61
2022-09-11T00:19:01.168Z,24.60
2022-09-11T00:20:01.274Z,24.58
2022-09-11T00:21:01.165Z,24.62
2022-09-11T00:22:01.103Z,24.61
2022-09-11T00:23:01.113Z,24.62
2022-09-11T00:24:01.119Z,24.64
2022-09-11T00:25:01.066Z,24.61
2022-09-11T00:26:01.645Z,24.57
2022-09-11T00:27:01.026Z,24.57
2022-09-11T00:28:01.033Z,24.60
2022-09-11T00:29:00.981Z,24.58
2022-09-11T00:30:00.988Z,24.58
2022-09-11T00:31:01.943Z,24.58
2022-09-11T00:32:01.171Z,24.58
2022-09-11T00:33:00.911Z,24.60
2022-09-11T00:34:00.902Z,24.58
2022-09-11T00:35:00.956Z,24.57
2022-09-11T00:36:01.145Z,24.58
2022-09-11T00:37:00.893Z,24.57
2022-09-11T00:38:01.141Z,24.57
2022-09-11T00:39:00.885Z,24.57
2022-09-11T00:40:01.226Z,24.53
2022-09-11T00:41:00.808Z,24.53
2022-09-11T00:42:01.185Z,24.55
2022-09-11T00:43:00.787Z,24.55
2022-09-11T00:44:00.922Z,24.53
2022-09-11T00:45:01.229Z,24.55
2022-09-11T00:46:00.825Z,24.53
2022-09-11T00:47:01.696Z,24.52
2022-09-11T00:48:00.686Z,24.57
2022-09-11T00:49:00.757Z,24.53
2022-09-11T00:50:00.759Z,24.50
2022-09-11T00:51:00.606Z,24.52
2022-09-11T00:52:00.607Z,24.52
2022-09-11T00:53:00.577Z,24.53
2022-09-11T00:54:00.554Z,24.52
2022-09-11T00:55:00.614Z,24.52
2022-09-11T00:56:01.194Z,24.52
2022-09-11T00:57:00.503Z,24.50
2022-09-11T00:58:00.479Z,24.50
2022-09-11T00:59:00.458Z,24.53
2022-09-11T01:00:00.460Z,24.50
2022-09-11T01:01:00.490Z,24.49
2022-09-11T01:02:00.557Z,24.50
2022-09-11T01:03:00.477Z,24.52
2022-09-11T01:04:00.785Z,24.49
2022-09-11T01:05:00.346Z,24.50
2022-09-11T01:06:00.302Z,24.50
2022-09-11T01:07:00.304Z,24.50
2022-09-11T01:08:00.560Z,24.50
2022-09-11T01:09:00.240Z,24.47
2022-09-11T01:10:00.237Z,24.49
2022-09-11T01:11:00.195Z,24.49
2022-09-11T01:12:00.173Z,24.47
2022-09-11T01:13:00.138Z,24.47
2022-09-11T01:14:00.330Z,24.46
2022-09-11T01:15:00.130Z,24.49
2022-09-11T01:16:00.156Z,24.46
2022-09-11T01:17:00.138Z,24.49
2022-09-11T01:18:00.052Z,24.47
2022-09-11T01:19:01.849Z,24.49
2022-09-11T01:20:00.290Z,24.49
2022-09-11T01:20:59.980Z,24.45
2022-09-11T01:21:59.992Z,24.45
2022-09-11T01:22:59.937Z,24.46
2022-09-11T01:23:59.917Z,24.45
2022-09-11T01:24:59.928Z,24.47
2022-09-11T01:26:00.078Z,24.46
2022-09-11T01:26:59.855Z,24.45
2022-09-11T01:27:59.877Z,24.45
2022-09-11T01:28:59.847Z,24.45
2022-09-11T01:29:59.865Z,24.46
2022-09-11T01:31:00.662Z,24.45
2022-09-11T01:31:59.834Z,24.42
2022-09-11T01:32:59.778Z,24.45
2022-09-11T01:33:59.787Z,24.45
2022-09-11T01:34:59.741Z,24.46
2022-09-11T01:35:59.692Z,24.45
2022-09-11T01:36:59.773Z,24.43
2022-09-11T01:38:00.020Z,24.43
2022-09-11T01:38:59.656Z,24.45
2022-09-11T01:40:00.317Z,24.45
2022-09-11T01:40:59.611Z,24.46
2022-09-11T01:41:59.876Z,24.43
2022-09-11T01:42:59.827Z,24.40
2022-09-11T01:43:59.788Z,24.42
2022-09-11T01:44:59.539Z,24.42
2022-09-11T01:45:59.579Z,24.42
2022-09-11T01:46:59.499Z,24.42
2022-09-11T01:47:59.506Z,24.40
2022-09-11T01:48:59.798Z,24.40
2022-09-11T01:49:59.498Z,24.45
2022-09-11T01:50:59.486Z,24.40
2022-09-11T01:51:59.437Z,24.40
2022-09-11T01:52:59.420Z,24.40
2022-09-11T01:53:59.383Z,24.42
2022-09-11T01:54:59.680Z,24.39
2022-09-11T01:55:59.371Z,24.37
2022-09-11T01:56:59.336Z,24.42
2022-09-11T01:57:59.310Z,24.39
2022-09-11T01:58:59.287Z,24.37
2022-09-11T01:59:59.304Z,24.39
2022-09-11T02:00:59.432Z,24.37
2022-09-11T02:01:59.299Z,24.39
2022-09-11T02:02:59.220Z,24.35
2022-09-11T02:03:59.215Z,24.37
2022-09-11T02:04:59.212Z,24.35
2022-09-11T02:05:59.197Z,24.35
2022-09-11T02:06:59.316Z,24.37
2022-09-11T02:07:59.336Z,24.39
2022-09-11T02:08:59.164Z,24.39
2022-09-11T02:09:59.151Z,24.40
2022-09-11T02:10:59.144Z,24.37
2022-09-11T02:11:59.122Z,24.35
2022-09-11T02:12:59.192Z,24.35
2022-09-11T02:13:59.355Z,24.34
2022-09-11T02:14:59.091Z,24.32
2022-09-11T02:15:59.126Z,24.37
2022-09-11T02:16:59.068Z,24.34
2022-09-11T02:17:59.062Z,24.34
2022-09-11T02:18:59.636Z,24.32
2022-09-11T02:19:59.042Z,24.32
2022-09-11T02:20:58.992Z,24.34
2022-09-11T02:21:58.984Z,24.34
2022-09-11T02:22:58.953Z,24.34
2022-09-11T02:23:58.949Z,24.34
2022-09-11T02:24:59.069Z,24.32
2022-09-11T02:25:58.958Z,24.32
2022-09-11T02:26:58.925Z,24.34
2022-09-11T02:27:58.892Z,24.32
2022-09-11T02:28:58.890Z,24.31
2022-09-11T02:29:58.881Z,24.31
2022-09-11T02:30:59.005Z,24.31
2022-09-11T02:31:58.888Z,24.30
2022-09-11T02:32:58.839Z,24.30
2022-09-11T02:33:58.833Z,24.32
2022-09-11T02:34:59.166Z,24.30
2022-09-11T02:35:58.818Z,24.28
2022-09-11T02:36:58.947Z,24.30
2022-09-11T02:37:58.966Z,24.30
2022-09-11T02:38:58.763Z,24.31
2022-09-11T02:39:58.803Z,24.31
2022-09-11T02:40:58.756Z,24.30
2022-09-11T02:41:58.765Z,24.30
2022-09-11T02:42:59.135Z,24.31
2022-09-11T02:43:58.893Z,24.30
2022-09-11T02:44:58.985Z,24.30
2022-09-11T02:45:59.117Z,24.31
2022-09-11T02:46:58.743Z,24.28
2022-09-11T02:47:59.067Z,24.30
2022-09-11T02:48:58.831Z,24.28
2022-09-11T02:49:59.071Z,24.28
2022-09-11T02:50:58.704Z,24.28
2022-09-11T02:51:58.717Z,24.27
2022-09-11T02:52:59.602Z,24.28
2022-09-11T02:53:59.272Z,24.28
2022-09-11T02:54:58.831Z,24.27
2022-09-11T02:55:58.722Z,24.27
2022-09-11T02:56:58.750Z,24.27
2022-09-11T02:57:58.755Z,24.25
2022-09-11T02:58:58.680Z,24.28
2022-09-11T02:59:58.590Z,24.28
2022-09-11T03:00:58.922Z,24.25
2022-09-11T03:01:58.629Z,24.28
2022-09-11T03:02:58.632Z,24.25
2022-09-11T03:03:58.550Z,24.25
2022-09-11T03:04:58.599Z,24.25
2022-09-11T03:05:58.795Z,24.25
2022-09-11T03:06:58.633Z,24.27
2022-09-11T03:07:58.885Z,24.27
2022-09-11T03:08:58.529Z,24.22
2022-09-11T03:09:58.733Z,24.27
2022-09-11T03:10:58.471Z,24.28
2022-09-11T03:11:58.740Z,24.22
2022-09-11T03:12:59.061Z,24.28
2022-09-11T03:13:58.658Z,24.24
2022-09-11T03:14:58.401Z,24.22
2022-09-11T03:15:58.481Z,24.22
2022-09-11T03:16:58.345Z,24.22
2022-09-11T03:17:58.357Z,24.24
2022-09-11T03:18:58.481Z,24.22
2022-09-11T03:19:58.364Z,24.25
2022-09-11T03:20:58.333Z,24.22
2022-09-11T03:21:58.333Z,24.22
2022-09-11T03:22:58.318Z,24.22
2022-09-11T03:23:58.325Z,24.22
2022-09-11T03:24:58.555Z,24.20
2022-09-11T03:25:58.353Z,24.22
2022-09-11T03:26:58.326Z,24.20
2022-09-11T03:27:58.311Z,24.21
2022-09-11T03:28:58.320Z,24.21
2022-09-11T03:29:58.312Z,24.22
2022-09-11T03:30:58.531Z,24.21
2022-09-11T03:31:58.358Z,24.22
2022-09-11T03:32:58.289Z,24.22
2022-09-11T03:33:58.297Z,24.16
2022-09-11T03:34:58.284Z,24.20
2022-09-11T03:35:58.297Z,24.21
2022-09-11T03:36:58.393Z,24.20
2022-09-11T03:37:58.309Z,24.21
2022-09-11T03:38:58.257Z,24.20
2022-09-11T03:39:58.257Z,24.20
2022-09-11T03:40:58.254Z,24.16
2022-09-11T03:41:58.241Z,24.16
2022-09-11T03:42:58.337Z,24.16
2022-09-11T03:43:58.236Z,24.18
2022-09-11T03:44:58.208Z,24.22
2022-09-11T03:45:58.259Z,24.16
2022-09-11T03:46:58.173Z,24.18
2022-09-11T03:47:58.180Z,24.16
2022-09-11T03:48:58.220Z,24.18
2022-09-11T03:49:58.166Z,24.18
2022-09-11T03:50:58.132Z,24.16
2022-09-11T03:51:58.109Z,24.13
2022-09-11T03:52:58.113Z,24.16
2022-09-11T03:53:58.073Z,24.16
2022-09-11T03:54:58.196Z,24.13
2022-09-11T03:55:58.102Z,24.16
2022-09-11T03:56:58.064Z,24.15
2022-09-11T03:57:58.029Z,24.15
2022-09-11T03:58:58.004Z,24.15
2022-09-11T03:59:58.026Z,24.15
2022-09-11T04:00:58.153Z,24.15
2022-09-11T04:01:58.022Z,24.15
2022-09-11T04:02:57.962Z,24.12
2022-09-11T04:03:57.951Z,24.13
2022-09-11T04:04:57.914Z,24.10
2022-09-11T04:05:57.924Z,24.10
2022-09-11T04:06:57.985Z,24.15
2022-09-11T04:07:57.926Z,24.13
2022-09-11T04:08:57.884Z,24.10
2022-09-11T04:09:57.864Z,24.12
2022-09-11T04:10:57.864Z,24.10
2022-09-11T04:11:57.842Z,24.12
2022-09-11T04:12:57.979Z,24.12
2022-09-11T04:13:57.938Z,24.12
2022-09-11T04:14:57.820Z,24.13
2022-09-11T04:15:57.813Z,24.12
2022-09-11T04:16:57.780Z,24.10
2022-09-11T04:18:00.071Z,24.13
2022-09-11T04:18:59.395Z,24.13
2022-09-11T04:19:57.760Z,24.13
2022-09-11T04:20:57.735Z,24.12
2022-09-11T04:21:57.720Z,24.10
2022-09-11T04:22:57.775Z,24.10
2022-09-11T04:23:57.734Z,24.09
2022-09-11T04:24:57.836Z,24.10
2022-09-11T04:25:57.671Z,24.10
2022-09-11T04:27:00.740Z,24.08
2022-09-11T04:27:57.624Z,24.10
2022-09-11T04:28:57.644Z,24.10
2022-09-11T04:29:57.594Z,24.13
2022-09-11T04:30:57.800Z,24.08
2022-09-11T04:31:57.655Z,24.08
2022-09-11T04:32:57.666Z,24.13
2022-09-11T04:33:58.249Z,24.10
2022-09-11T04:34:57.489Z,24.09
2022-09-11T04:35:57.494Z,24.09
2022-09-11T04:36:57.590Z,24.09
2022-09-11T04:37:57.451Z,24.08
2022-09-11T04:38:57.435Z,24.08
2022-09-11T04:39:57.463Z,24.09
2022-09-11T04:40:57.415Z,24.08
2022-09-11T04:41:57.390Z,24.08
2022-09-11T04:42:57.651Z,24.08
2022-09-11T04:44:01.116Z,24.08
2022-09-11T04:44:58.361Z,24.05
2022-09-11T04:45:57.409Z,24.06
2022-09-11T04:46:57.319Z,24.08
2022-09-11T04:47:57.305Z,24.05
2022-09-11T04:48:57.401Z,24.09
2022-09-11T04:49:57.292Z,24.05
2022-09-11T04:50:57.267Z,24.06
2022-09-11T04:51:57.248Z,24.08
2022-09-11T04:52:57.234Z,24.06
2022-09-11T04:53:57.219Z,24.03
2022-09-11T04:54:57.327Z,24.02
2022-09-11T04:55:57.212Z,24.05
2022-09-11T04:56:57.194Z,24.05
2022-09-11T04:57:57.191Z,24.06
2022-09-11T04:58:57.170Z,24.03
2022-09-11T04:59:57.185Z,24.02
2022-09-11T05:00:57.307Z,24.03
2022-09-11T05:01:57.157Z,24.03
2022-09-11T05:02:57.207Z,24.03
2022-09-11T05:03:57.106Z,24.02
2022-09-11T05:04:57.097Z,24.03
2022-09-11T05:05:57.098Z,24.02
2022-09-11T05:06:57.293Z,24.00
2022-09-11T05:07:57.075Z,24.05
2022-09-11T05:08:57.075Z,24.02
2022-09-11T05:09:57.072Z,24.02
2022-09-11T05:10:57.052Z,24.03
2022-09-11T05:11:57.056Z,24.00
2022-09-11T05:12:57.195Z,24.00
2022-09-11T05:13:57.015Z,24.03
2022-09-11T05:14:57.029Z,24.05
2022-09-11T05:15:56.993Z,24.02
2022-09-11T05:16:57.054Z,24.02
2022-09-11T05:17:56.979Z,23.98
2022-09-11T05:18:57.438Z,24.00
2022-09-11T05:19:56.992Z,24.00
2022-09-11T05:20:57.917Z,24.02
2022-09-11T05:21:56.995Z,24.02
2022-09-11T05:22:57.017Z,24.00
2022-09-11T05:23:56.937Z,24.00
2022-09-11T05:24:57.102Z,24.02
2022-09-11T05:25:56.921Z,24.00
2022-09-11T05:26:56.909Z,24.00
2022-09-11T05:27:56.893Z,24.00
2022-09-11T05:28:56.886Z,23.98
2022-09-11T05:29:56.875Z,24.00
2022-09-11T05:30:57.070Z,24.02
2022-09-11T05:31:56.866Z,23.98
2022-09-11T05:32:56.835Z,23.97
2022-09-11T05:33:56.805Z,23.98
2022-09-11T05:34:56.813Z,24.00
2022-09-11T05:35:56.798Z,23.98
2022-09-11T05:36:56.905Z,23.98
2022-09-11T05:37:56.771Z,23.98
2022-09-11T05:38:56.789Z,24.00
2022-09-11T05:39:56.789Z,23.97
2022-09-11T05:40:56.753Z,23.98
2022-09-11T05:41:56.747Z,23.97
2022-09-11T05:42:57.575Z,23.97
2022-09-11T05:43:56.733Z,23.97
2022-09-11T05:44:56.711Z,24.00
2022-09-11T05:45:56.726Z,23.98
2022-09-11T05:46:56.712Z,24.00
2022-09-11T05:47:56.705Z,24.00
2022-09-11T05:48:56.786Z,23.98
2022-09-11T05:49:56.649Z,24.00
2022-09-11T05:50:56.636Z,24.00
2022-09-11T05:51:56.603Z,23.98
2022-09-11T05:52:56.621Z,24.00
2022-09-11T05:53:56.579Z,24.00
2022-09-11T05:54:56.738Z,23.97
2022-09-11T05:55:56.550Z,23.98
2022-09-11T05:56:56.538Z,24.00
2022-09-11T05:57:56.527Z,23.98
2022-09-11T05:58:56.517Z,23.98
2022-09-11T05:59:56.524Z,23.98
2022-09-11T06:00:56.714Z,24.00
2022-09-11T06:01:56.523Z,24.00
2022-09-11T06:02:56.462Z,23.98
2022-09-11T06:03:56.447Z,23.98
2022-09-11T06:04:56.459Z,24.00
2022-09-11T06:05:56.436Z,24.00
2022-09-11T06:06:56.665Z,23.97
2022-09-11T06:07:56.408Z,23.97
2022-09-11T06:08:56.401Z,23.98
2022-09-11T06:09:58.694Z,23.98
2022-09-11T06:10:57.373Z,23.98
2022-09-11T06:11:57.199Z,23.97
2022-09-11T06:12:56.596Z,24.00
2022-09-11T06:13:56.324Z,23.98
2022-09-11T06:14:56.333Z,23.97
2022-09-11T06:15:56.323Z,23.95
2022-09-11T06:16:56.327Z,23.95
2022-09-11T06:17:56.272Z,23.97
2022-09-11T06:18:56.393Z,23.95
2022-09-11T06:19:56.258Z,23.95
2022-09-11T06:20:56.263Z,23.97
2022-09-11T06:21:56.260Z,23.97
2022-09-11T06:22:56.919Z,23.98
2022-09-11T06:23:56.218Z,24.00
2022-09-11T06:24:57.058Z,23.97
2022-09-11T06:25:56.245Z,23.97
2022-09-11T06:26:56.206Z,23.97
2022-09-11T06:27:56.210Z,23.95
2022-09-11T06:28:56.184Z,24.00
2022-09-11T06:29:56.170Z,23.97
2022-09-11T06:30:56.480Z,23.98
2022-09-11T06:31:56.164Z,24.00
2022-09-11T06:32:56.163Z,23.97
2022-09-11T06:33:56.138Z,24.05
2022-09-11T06:34:56.138Z,24.00
2022-09-11T06:35:56.128Z,23.98
2022-09-11T06:36:56.370Z,23.98
2022-09-11T06:37:56.117Z,24.02
2022-09-11T06:38:56.248Z,23.98
2022-09-11T06:39:56.179Z,24.00
2022-09-11T06:40:56.361Z,23.98
2022-09-11T06:41:56.092Z,23.98
2022-09-11T06:42:56.236Z,23.98
2022-09-11T06:43:56.144Z,23.98
2022-09-11T06:44:56.064Z,23.98
2022-09-11T06:45:56.145Z,24.00
2022-09-11T06:46:56.101Z,24.00
2022-09-11T06:47:56.276Z,24.02
2022-09-11T06:48:56.677Z,24.00
2022-09-11T06:49:56.982Z,23.98
2022-09-11T06:50:56.130Z,24.03
2022-09-11T06:51:56.486Z,23.98
2022-09-11T06:52:56.012Z,24.00
2022-09-11T06:53:56.089Z,24.00
2022-09-11T06:54:56.463Z,24.03
2022-09-11T06:55:56.033Z,24.00
2022-09-11T06:56:56.251Z,24.00
2022-09-11T06:57:55.994Z,24.05
2022-09-11T06:58:56.203Z,24.03
2022-09-11T06:59:55.899Z,24.03
2022-09-11T07:00:56.243Z,24.03
2022-09-11T07:01:55.940Z,24.05
2022-09-11T07:02:56.110Z,24.02
2022-09-11T07:03:55.849Z,24.03
2022-09-11T07:04:55.858Z,24.06
2022-09-11T07:05:55.849Z,24.06
2022-09-11T07:06:55.924Z,24.06
2022-09-11T07:07:56.593Z,24.05
2022-09-11T07:08:55.783Z,24.08
2022-09-11T07:09:55.734Z,24.09
2022-09-11T07:10:55.729Z,24.09
2022-09-11T07:11:55.698Z,24.08
2022-09-11T07:12:55.948Z,24.09
2022-09-11T07:13:55.682Z,24.13
2022-09-11T07:14:55.786Z,24.10
2022-09-11T07:15:55.664Z,24.09
2022-09-11T07:16:56.619Z,24.10
2022-09-11T07:17:55.639Z,24.10
2022-09-11T07:18:56.197Z,24.13
2022-09-11T07:19:55.606Z,24.10
2022-09-11T07:20:55.613Z,24.15
2022-09-11T07:21:55.581Z,24.15
2022-09-11T07:22:55.573Z,24.15
2022-09-11T07:23:55.561Z,24.15
2022-09-11T07:24:55.744Z,24.16
2022-09-11T07:25:55.542Z,24.16
2022-09-11T07:26:55.534Z,24.16
2022-09-11T07:27:55.534Z,24.16
2022-09-11T07:28:55.533Z,24.18
2022-09-11T07:29:55.506Z,24.18
2022-09-11T07:30:55.741Z,24.18
2022-09-11T07:31:55.500Z,24.20
2022-09-11T07:32:55.487Z,24.20
2022-09-11T07:33:55.481Z,24.20
2022-09-11T07:34:55.472Z,24.21
2022-09-11T07:35:55.482Z,24.21
2022-09-11T07:36:55.633Z,24.22
2022-09-11T07:37:55.473Z,24.24
2022-09-11T07:38:55.472Z,24.24
2022-09-11T07:39:55.499Z,24.25
2022-09-11T07:40:55.455Z,24.24
2022-09-11T07:41:55.440Z,24.27
2022-09-11T07:42:55.645Z,24.24
2022-09-11T07:43:55.438Z,24.25
2022-09-11T07:44:55.448Z,24.27
2022-09-11T07:45:55.466Z,24.28
2022-09-11T07:46:55.426Z,24.25
2022-09-11T07:47:55.418Z,24.28
2022-09-11T07:48:55.549Z,24.30
2022-09-11T07:49:55.454Z,24.30
2022-09-11T07:50:55.428Z,24.30
2022-09-11T07:51:55.409Z,24.31
2022-09-11T07:52:55.406Z,24.34
2022-09-11T07:53:55.413Z,24.35
2022-09-11T07:54:55.700Z,24.37
2022-09-11T07:55:55.425Z,24.37
2022-09-11T07:56:55.384Z,24.40
2022-09-11T07:57:55.388Z,24.42
2022-09-11T07:58:55.387Z,24.45
2022-09-11T07:59:55.392Z,24.46
2022-09-11T08:00:55.587Z,24.47
2022-09-11T08:01:55.376Z,24.46
2022-09-11T08:02:55.372Z,24.49
2022-09-11T08:03:55.353Z,24.47
2022-09-11T08:04:55.520Z,24.46
2022-09-11T08:05:55.309Z,24.47
2022-09-11T08:06:55.413Z,24.50
2022-09-11T08:07:55.299Z,24.53
2022-09-11T08:08:55.310Z,24.53
2022-09-11T08:10:16.428Z,24.57
2022-09-11T08:10:56.349Z,24.55
2022-09-11T08:11:55.531Z,24.58
2022-09-11T08:12:59.360Z,24.58
2022-09-11T08:13:55.326Z,24.58
2022-09-11T08:14:55.257Z,24.61
2022-09-11T08:15:55.241Z,24.62
2022-09-11T08:16:55.295Z,24.65
2022-09-11T08:17:55.990Z,24.62
2022-09-11T08:18:55.346Z,24.68
2022-09-11T08:19:55.233Z,24.68
2022-09-11T08:20:55.335Z,24.68
2022-09-11T08:21:55.223Z,24.73
2022-09-11T08:22:55.336Z,24.71
2022-09-11T08:23:55.253Z,24.77
2022-09-11T08:24:55.380Z,24.73
2022-09-11T08:25:55.240Z,24.73
2022-09-11T08:26:55.217Z,24.71
2022-09-11T08:27:55.146Z,24.73
2022-09-11T08:28:55.134Z,24.77
2022-09-11T08:29:55.121Z,24.77
2022-09-11T08:30:55.440Z,24.80
2022-09-11T08:31:58.064Z,24.76
2022-09-11T08:32:56.083Z,24.76
2022-09-11T08:33:55.068Z,24.76
2022-09-11T08:34:55.087Z,24.76
2022-09-11T08:35:55.056Z,24.77
2022-09-11T08:36:55.240Z,24.81
2022-09-11T08:37:55.346Z,24.85
2022-09-11T08:38:55.012Z,24.85
2022-09-11T08:39:55.043Z,24.87
2022-09-11T08:40:54.986Z,24.87
2022-09-11T08:41:54.959Z,24.90
2022-09-11T08:42:55.162Z,24.90
2022-09-11T08:43:54.935Z,24.90
2022-09-11T08:44:54.965Z,24.91
2022-09-11T08:45:54.983Z,24.95
2022-09-11T08:46:54.910Z,24.95
2022-09-11T08:47:54.884Z,24.95
2022-09-11T08:48:55.048Z,24.98
2022-09-11T08:49:54.853Z,25.00
2022-09-11T08:50:54.849Z,25.05
2022-09-11T08:51:54.840Z,25.05
2022-09-11T08:52:54.829Z,25.08
2022-09-11T08:53:54.794Z,25.06
2022-09-11T08:54:55.008Z,25.13
2022-09-11T08:55:54.855Z,25.13
2022-09-11T08:56:54.781Z,25.14
2022-09-11T08:57:54.749Z,25.15
2022-09-11T08:58:54.759Z,25.17
2022-09-11T08:59:54.780Z,25.18
2022-09-11T09:00:55.180Z,25.23
2022-09-11T09:01:54.781Z,25.24
2022-09-11T09:02:54.651Z,25.24
2022-09-11T09:03:54.647Z,25.23
2022-09-11T09:04:54.710Z,25.28
2022-09-11T09:05:54.644Z,25.30
2022-09-11T09:06:54.744Z,25.28
2022-09-11T09:07:54.605Z,25.28
2022-09-11T09:08:54.651Z,25.32
2022-09-11T09:09:54.574Z,25.33
2022-09-11T09:10:54.547Z,25.35
2022-09-11T09:11:54.550Z,25.36
2022-09-11T09:12:54.652Z,25.39
2022-09-11T09:13:54.502Z,25.38
2022-09-11T09:14:54.511Z,25.38
2022-09-11T09:15:54.550Z,25.38
2022-09-11T09:16:54.498Z,25.40
2022-09-11T09:17:54.464Z,25.40
2022-09-11T09:18:54.541Z,25.42
2022-09-11T09:19:54.642Z,25.45
2022-09-11T09:20:54.410Z,25.43
2022-09-11T09:21:54.388Z,25.43
2022-09-11T09:22:54.418Z,25.43
2022-09-11T09:23:54.351Z,25.45
2022-09-11T09:24:54.725Z,25.45
2022-09-11T09:25:54.342Z,25.47
2022-09-11T09:26:54.354Z,25.50
2022-09-11T09:27:54.334Z,25.47
2022-09-11T09:28:54.335Z,25.47
2022-09-11T09:29:54.390Z,25.50
2022-09-11T09:30:54.362Z,25.47
2022-09-11T09:31:54.184Z,25.47
2022-09-11T09:32:54.304Z,25.52
2022-09-11T09:33:54.187Z,25.54
2022-09-11T09:34:54.474Z,25.54
2022-09-11T09:35:54.104Z,25.51
2022-09-11T09:36:54.376Z,25.54
2022-09-11T09:37:54.074Z,25.51
2022-09-11T09:38:54.131Z,25.52
2022-09-11T09:39:54.159Z,25.50
2022-09-11T09:40:54.027Z,25.52
2022-09-11T09:41:55.315Z,25.51
2022-09-11T09:42:54.147Z,25.47
2022-09-11T09:43:53.960Z,25.47
2022-09-11T09:44:53.957Z,25.52
2022-09-11T09:45:54.364Z,25.50
2022-09-11T09:46:53.902Z,25.51
2022-09-11T09:47:53.892Z,25.52
2022-09-11T09:48:54.034Z,25.50
2022-09-11T09:49:53.867Z,25.50
2022-09-11T09:50:53.857Z,25.52
2022-09-11T09:51:53.955Z,25.50
2022-09-11T09:52:53.831Z,25.50
2022-09-11T09:53:53.813Z,25.47
2022-09-11T09:54:54.251Z,25.47
2022-09-11T09:55:53.768Z,25.47
2022-09-11T09:56:53.727Z,25.46
2022-09-11T09:57:53.726Z,25.47
2022-09-11T09:58:53.700Z,25.45
2022-09-11T09:59:53.714Z,25.42
2022-09-11T10:00:53.805Z,25.45
2022-09-11T10:01:53.725Z,25.45
2022-09-11T10:02:53.647Z,25.43
2022-09-11T10:03:53.625Z,25.43
2022-09-11T10:04:53.731Z,25.43
2022-09-11T10:05:54.012Z,25.42
2022-09-11T10:06:53.750Z,25.45
2022-09-11T10:07:53.547Z,25.43
2022-09-11T10:08:53.581Z,25.42
2022-09-11T10:09:53.616Z,25.40
2022-09-11T10:10:53.538Z,25.42
2022-09-11T10:11:53.519Z,25.45
2022-09-11T10:13:03.581Z,25.46
2022-09-11T10:13:54.470Z,25.47
2022-09-11T10:14:53.463Z,25.51
2022-09-11T10:15:53.504Z,25.50
2022-09-11T10:16:53.425Z,25.52
2022-09-11T10:17:53.426Z,25.50
2022-09-11T10:18:53.519Z,25.50
2022-09-11T10:19:53.363Z,25.46
2022-09-11T10:20:53.360Z,25.46
2022-09-11T10:21:53.373Z,25.50
2022-09-11T10:22:53.325Z,25.46
2022-09-11T10:23:53.284Z,25.46
2022-09-11T10:24:53.593Z,25.45
2022-09-11T10:25:53.255Z,25.46
2022-09-11T10:26:53.256Z,25.47
2022-09-11T10:27:53.221Z,25.46
2022-09-11T10:28:53.210Z,25.46
2022-09-11T10:29:53.222Z,25.46
2022-09-11T10:30:53.388Z,25.46
2022-09-11T10:31:53.272Z,25.46
2022-09-11T10:32:53.107Z,25.45
2022-09-11T10:33:53.195Z,25.45
2022-09-11T10:34:53.086Z,25.46
2022-09-11T10:35:53.079Z,25.50
2022-09-11T10:36:53.321Z,25.50
2022-09-11T10:37:53.058Z,25.50
2022-09-11T10:38:53.029Z,25.47
2022-09-11T10:39:53.086Z,25.46
2022-09-11T10:40:53.009Z,25.50
2022-09-11T10:41:52.968Z,25.50
2022-09-11T10:42:53.107Z,25.51
2022-09-11T10:43:52.930Z,25.47
2022-09-11T10:44:52.907Z,25.51
2022-09-11T10:45:52.961Z,25.50
2022-09-11T10:46:52.877Z,25.54
2022-09-11T10:47:52.846Z,25.52
2022-09-11T10:48:53.196Z,25.54
2022-09-11T10:49:52.842Z,25.51
2022-09-11T10:50:52.782Z,25.52
2022-09-11T10:51:52.761Z,25.55
2022-09-11T10:52:52.764Z,25.52
2022-09-11T10:53:52.696Z,25.52
2022-09-11T10:54:52.949Z,25.52
2022-09-11T10:55:52.667Z,25.52
2022-09-11T10:56:52.629Z,25.58
2022-09-11T10:57:52.620Z,25.57
2022-09-11T10:58:54.929Z,25.58
2022-09-11T10:59:52.603Z,25.61
2022-09-11T11:00:52.712Z,25.61
2022-09-11T11:01:52.620Z,25.67
2022-09-11T11:02:52.494Z,25.73
2022-09-11T11:03:52.486Z,25.70
2022-09-11T11:04:52.463Z,25.72
2022-09-11T11:05:52.443Z,25.73
2022-09-11T11:06:52.611Z,25.76
2022-09-11T11:07:52.372Z,25.73
2022-09-11T11:08:52.362Z,25.75
2022-09-11T11:09:52.321Z,25.76
2022-09-11T11:10:52.291Z,25.75
2022-09-11T11:11:52.274Z,25.77
2022-09-11T11:12:52.363Z,25.76
2022-09-11T11:13:52.230Z,25.76
2022-09-11T11:14:52.241Z,25.76
2022-09-11T11:15:52.180Z,25.77
2022-09-11T11:16:52.143Z,25.80
2022-09-11T11:17:52.101Z,25.82
2022-09-11T11:18:52.198Z,25.82
2022-09-11T11:19:52.068Z,25.83
2022-09-11T11:20:52.044Z,25.85
2022-09-11T11:21:52.010Z,25.88
2022-09-11T11:22:51.994Z,25.85
2022-09-11T11:23:51.967Z,25.88
2022-09-11T11:24:52.040Z,25.88
2022-09-11T11:25:51.900Z,25.94
2022-09-11T11:26:51.856Z,25.91
2022-09-11T11:27:51.835Z,25.94
2022-09-11T11:28:51.809Z,25.94
2022-09-11T11:29:51.773Z,25.94
2022-09-11T11:30:51.900Z,25.95
2022-09-11T11:31:51.715Z,25.95
2022-09-11T11:32:51.674Z,25.94
2022-09-11T11:33:51.646Z,25.92
2022-09-11T11:34:51.605Z,25.92
2022-09-11T11:35:51.604Z,25.92
2022-09-11T11:36:51.884Z,25.92
2022-09-11T11:37:51.531Z,25.92
2022-09-11T11:38:51.493Z,25.97
2022-09-11T11:39:51.515Z,25.99
2022-09-11T11:40:51.430Z,25.98
2022-09-11T11:41:51.441Z,26.02
2022-09-11T11:42:55.901Z,25.99
2022-09-11T11:43:51.340Z,25.98
2022-09-11T11:44:51.321Z,26.01
2022-09-11T11:45:51.325Z,26.06
2022-09-11T11:46:51.280Z,26.06
2022-09-11T11:47:51.251Z,26.05
2022-09-11T11:48:51.332Z,26.05
2022-09-11T11:49:51.188Z,26.06
2022-09-11T11:50:51.150Z,26.09
2022-09-11T11:51:51.173Z,26.07
2022-09-11T11:52:51.088Z,26.07
2022-09-11T11:53:51.068Z,26.10
2022-09-11T11:54:51.258Z,26.12
2022-09-11T11:55:51.009Z,26.18
2022-09-11T11:56:51.004Z,26.20
2022-09-11T11:57:50.958Z,26.20
2022-09-11T11:58:50.917Z,26.23
2022-09-11T11:59:50.901Z,26.20
2022-09-11T12:00:55.191Z,26.20
2022-09-11T12:01:51.587Z,26.26
2022-09-11T12:02:50.807Z,26.25
2022-09-11T12:03:50.830Z,26.28
2022-09-11T12:04:50.749Z,26.29
2022-09-11T12:05:50.726Z,26.29
2022-09-11T12:06:50.926Z,26.30
2022-09-11T12:07:50.673Z,26.29
2022-09-11T12:08:50.642Z,26.35
2022-09-11T12:09:50.627Z,26.36
2022-09-11T12:10:50.580Z,26.36
2022-09-11T12:11:50.564Z,26.36
2022-09-11T12:12:50.622Z,26.39
2022-09-11T12:13:50.482Z,26.39
2022-09-11T12:14:50.409Z,26.43
2022-09-11T12:15:50.421Z,26.44
2022-09-11T12:16:50.378Z,26.43
2022-09-11T12:17:50.301Z,26.44
2022-09-11T12:18:50.381Z,26.44
2022-09-11T12:19:50.240Z,26.45
2022-09-11T12:20:50.204Z,26.47
2022-09-11T12:21:50.158Z,26.47
2022-09-11T12:22:50.124Z,26.47
2022-09-11T12:23:50.069Z,26.48
2022-09-11T12:24:50.143Z,26.45
2022-09-11T12:25:50.005Z,26.47
2022-09-11T12:26:49.973Z,26.45
2022-09-11T12:27:49.928Z,26.44
2022-09-11T12:28:49.879Z,26.47
2022-09-11T12:29:49.847Z,26.45
2022-09-11T12:30:50.036Z,26.44
2022-09-11T12:31:49.759Z,26.45
2022-09-11T12:32:49.729Z,26.45
2022-09-11T12:33:49.773Z,26.48
2022-09-11T12:34:49.638Z,26.47
2022-09-11T12:35:49.612Z,26.50
2022-09-11T12:36:49.667Z,26.47
2022-09-11T12:37:53.981Z,26.48
2022-09-11T12:38:49.464Z,26.47
2022-09-11T12:39:49.478Z,26.48
2022-09-11T12:40:49.386Z,26.47
2022-09-11T12:41:49.364Z,26.47
2022-09-11T12:42:49.607Z,26.48
2022-09-11T12:43:49.295Z,26.48
2022-09-11T12:44:49.247Z,26.48
2022-09-11T12:45:49.259Z,26.48
2022-09-11T12:46:49.169Z,26.48
2022-09-11T12:47:49.134Z,26.50
2022-09-11T12:49:05.682Z,26.48
2022-09-11T12:49:50.053Z,26.47
2022-09-11T12:50:49.023Z,26.50
2022-09-11T12:51:48.984Z,26.48